createdAt,value
2018-12-29T00:05:47.251Z,49.40
2018-12-29T00:09:12.193Z,48.83
2018-12-29T00:15:44.056Z,59.45
2018-12-29T00:22:15.048Z,58.90
2018-12-29T00:25:39.322Z,47.23
2018-12-29T00:32:11.427Z,46.75
2018-12-29T00:35:36.412Z,50.03
2018-12-29T00:42:08.560Z,50.83
2018-12-29T00:48:39.751Z,58.43
2018-12-29T00:52:05.863Z,57.40
2018-12-29T00:58:37.979Z,55.83
2018-12-29T01:01:45.084Z,54.48
2018-12-29T01:08:16.506Z,63.23
2018-12-29T01:14:47.324Z,58.17
2018-12-29T01:21:17.935Z,51.92
2018-12-29T01:24:42.303Z,58.07
2018-12-29T01:35:14.147Z,47.75
2018-12-29T01:37:47.428Z,46.55
2018-12-29T01:44:18.469Z,43.87
2018-12-29T01:50:51.060Z,48.60
2018-12-29T01:57:22.229Z,50.73
2018-12-29T02:03:53.538Z,54.53
2018-12-29T02:07:19.125Z,48.40
2018-12-29T02:13:50.705Z,51.30
2018-12-29T02:20:21.483Z,47.10
2018-12-29T02:23:48.487Z,45.45
2018-12-29T02:30:19.498Z,44.48
2018-12-29T02:33:44.898Z,45.98
2018-12-29T02:40:15.569Z,44.67
2018-12-29T02:46:46.513Z,37.67
2018-12-29T02:50:10.936Z,35.38
2018-12-29T02:56:42.185Z,41.27
2018-12-29T03:03:15.038Z,34.00
2018-12-29T03:06:40.823Z,41.68
2018-12-29T03:13:11.643Z,36.55
2018-12-29T03:16:37.206Z,39.23
2018-12-29T03:23:09.182Z,42.37
2018-12-29T03:29:39.868Z,42.35
2018-12-29T03:33:05.250Z,39.03
2018-12-29T03:39:35.792Z,43.00
2018-12-29T03:42:07.084Z,43.43
2018-12-29T03:48:40.978Z,41.40
2018-12-29T03:55:13.009Z,38.10
2018-12-29T04:01:47.288Z,39.10
2018-12-29T04:08:18.856Z,43.42
2018-12-29T04:11:44.294Z,41.00
2018-12-29T04:18:16.026Z,38.50
2018-12-29T04:21:40.784Z,38.15
2018-12-29T04:28:11.707Z,38.58
2018-12-29T04:31:25.933Z,42.17
2018-12-29T04:37:59.717Z,38.38
2018-12-29T04:44:30.333Z,34.45
2018-12-29T04:47:54.566Z,36.70
2018-12-29T04:54:24.644Z,37.87
2018-12-29T05:00:56.444Z,47.60
2018-12-29T05:07:27.923Z,40.33
2018-12-29T05:10:46.004Z,40.67
2018-12-29T05:17:18.527Z,38.92
2018-12-29T05:23:48.771Z,42.45
2018-12-29T05:27:13.402Z,38.53
2018-12-29T05:33:44.073Z,33.55
2018-12-29T05:37:09.551Z,33.75
2018-12-29T05:43:40.502Z,33.28
2018-12-29T05:46:10.642Z,35.88
2018-12-29T05:52:41.536Z,38.60
2018-12-29T05:59:13.655Z,41.85
2018-12-29T06:05:47.314Z,38.75
2018-12-29T06:09:12.972Z,38.87
2018-12-29T06:15:47.474Z,46.90
2018-12-29T06:19:12.743Z,44.63
2018-12-29T06:25:45.254Z,45.08
2018-12-29T06:32:17.742Z,45.75
2018-12-29T06:35:45.019Z,46.53
2018-12-29T06:42:16.801Z,48.42
2018-12-29T06:48:51.628Z,54.42
2018-12-29T06:55:22.994Z,55.23
2018-12-29T07:01:54.572Z,45.73
2018-12-29T07:08:25.708Z,47.43
2018-12-29T07:15:00.560Z,50.88
2018-12-29T07:18:00.334Z,52.85
2018-12-29T07:24:30.981Z,44.45
2018-12-29T07:31:06.623Z,42.95
2018-12-29T07:37:37.272Z,43.58
2018-12-29T07:41:02.445Z,41.15
2018-12-29T07:47:33.594Z,40.38
2018-12-29T07:50:05.037Z,43.05
2018-12-29T07:56:35.875Z,52.17
2018-12-29T08:03:07.559Z,48.83
2018-12-29T08:06:33.376Z,52.78
2018-12-29T08:13:04.615Z,41.88
2018-12-29T08:19:36.354Z,48.25
2018-12-29T08:23:00.775Z,53.20
2018-12-29T08:29:33.230Z,50.38
2018-12-29T08:32:57.799Z,48.30
2018-12-29T08:39:29.009Z,43.38
2018-12-29T08:46:01.885Z,50.60
2018-12-29T08:52:35.138Z,49.75
2018-12-29T08:55:05.300Z,45.63
2018-12-29T09:01:36.197Z,42.93
2018-12-29T09:08:07.322Z,46.40
2018-12-29T09:11:31.950Z,42.05
2018-12-29T09:18:03.183Z,48.90
2018-12-29T09:24:33.961Z,48.52
2018-12-29T09:27:58.847Z,49.40
2018-12-29T09:34:29.583Z,50.15
2018-12-29T09:37:53.951Z,54.42
2018-12-29T09:44:25.019Z,44.70
2018-12-29T09:50:56.234Z,44.13
2018-12-29T09:57:27.184Z,44.20
2018-12-29T10:03:58.247Z,41.92
2018-12-29T10:10:29.303Z,39.95
2018-12-29T10:17:00.401Z,44.53
2018-12-29T10:23:31.962Z,43.67
2018-12-29T10:26:56.495Z,37.15
2018-12-29T10:33:27.858Z,41.77
2018-12-29T10:36:52.840Z,41.13
2018-12-29T10:43:24.473Z,40.95
2018-12-29T10:49:55.409Z,39.63
2018-12-29T10:53:20.173Z,47.30
2018-12-29T10:59:51.282Z,45.03
2018-12-29T11:06:22.763Z,48.17
2018-12-29T11:12:53.828Z,43.80
2018-12-29T11:16:18.761Z,45.78
2018-12-29T11:22:49.932Z,47.85
2018-12-29T11:26:14.507Z,46.28
2018-12-29T11:32:45.802Z,42.83
2018-12-29T11:39:16.888Z,52.08
2018-12-29T11:42:41.089Z,48.30
2018-12-29T11:49:18.035Z,48.55
2018-12-29T11:52:38.525Z,45.65
2018-12-29T11:59:09.550Z,45.33
2018-12-29T12:01:40.685Z,45.40
2018-12-29T12:08:11.980Z,42.38
2018-12-29T12:14:42.982Z,48.83
2018-12-29T12:21:14.051Z,45.80
2018-12-29T12:24:38.804Z,40.95
2018-12-29T12:31:11.430Z,42.70
2018-12-29T12:34:35.946Z,44.60
2018-12-29T12:41:06.846Z,45.65
2018-12-29T12:47:37.657Z,45.17
2018-12-29T12:51:02.697Z,43.80
2018-12-29T12:57:34.586Z,42.50
2018-12-29T13:04:05.626Z,42.62
2018-12-29T13:10:36.684Z,45.10
2018-12-29T13:14:01.208Z,41.30
2018-12-29T13:20:31.862Z,45.63
2018-12-29T13:27:03.227Z,42.00
2018-12-29T13:30:27.911Z,45.23
2018-12-29T13:36:58.933Z,42.17
2018-12-29T13:40:23.474Z,42.53
2018-12-29T13:46:54.684Z,39.78
2018-12-29T13:50:03.443Z,42.13
2018-12-29T13:56:34.450Z,42.37
2018-12-29T14:03:05.669Z,43.27
2018-12-29T14:05:35.845Z,41.98
2018-12-29T14:12:06.911Z,41.18
2018-12-29T14:18:37.913Z,45.30
2018-12-29T14:25:09.016Z,47.00
2018-12-29T14:28:33.454Z,42.63
2018-12-29T14:35:05.007Z,50.03
2018-12-29T14:41:35.757Z,43.63
2018-12-29T14:44:42.378Z,43.30
2018-12-29T14:51:13.583Z,42.17
2018-12-29T14:57:45.275Z,44.48
2018-12-29T15:01:10.034Z,42.17
2018-12-29T15:07:40.832Z,50.12
2018-12-29T15:14:13.099Z,44.00
2018-12-29T15:20:44.640Z,47.48
2018-12-29T15:27:16.366Z,46.33
2018-12-29T15:33:47.433Z,47.80
2018-12-29T15:40:18.367Z,43.40
2018-12-29T15:46:50.871Z,46.88
2018-12-29T15:50:16.109Z,53.28
2018-12-29T15:56:47.656Z,54.73
2018-12-29T16:00:12.076Z,53.20
2018-12-29T16:06:43.814Z,60.40
2018-12-29T16:09:14.071Z,50.48
2018-12-29T16:15:48.473Z,55.12
2018-12-29T16:22:19.636Z,52.08
2018-12-29T16:28:52.092Z,54.20
2018-12-29T16:32:17.465Z,50.23
2018-12-29T16:38:48.667Z,52.57
2018-12-29T16:42:13.475Z,49.73
2018-12-29T16:48:47.054Z,48.38
2018-12-29T16:55:18.223Z,48.42
2018-12-29T16:58:42.995Z,52.38
2018-12-29T17:05:14.353Z,61.65
2018-12-29T17:11:52.236Z,52.43
2018-12-29T17:15:11.638Z,54.73
2018-12-29T17:21:42.767Z,57.83
2018-12-29T17:25:07.421Z,57.48
2018-12-29T17:31:38.253Z,60.25
2018-12-29T17:38:09.568Z,56.42
2018-12-29T17:41:34.310Z,61.92
2018-12-29T17:48:05.323Z,60.23
2018-12-29T17:51:29.886Z,57.67
2018-12-29T17:58:00.719Z,57.55
2018-12-29T18:04:32.232Z,50.48
2018-12-29T18:11:02.815Z,56.88
2018-12-29T18:13:32.683Z,54.77
2018-12-29T18:20:03.254Z,54.13
2018-12-29T18:26:33.896Z,48.83
2018-12-29T18:33:05.451Z,53.85
2018-12-29T18:36:29.703Z,52.43
2018-12-29T18:43:01.148Z,48.42
2018-12-29T18:46:25.908Z,53.45
2018-12-29T18:52:57.050Z,55.15
2018-12-29T18:56:15.697Z,58.63
2018-12-29T19:02:45.687Z,57.65
2018-12-29T19:09:16.067Z,50.12
2018-12-29T19:15:46.210Z,49.50
2018-12-29T19:22:16.280Z,52.17
2018-12-29T19:28:48.483Z,48.73
2018-12-29T19:35:19.390Z,49.83
2018-12-29T19:41:54.895Z,49.03
2018-12-29T19:45:16.391Z,51.95
2018-12-29T19:51:47.063Z,59.27
2018-12-29T19:58:18.562Z,59.45
2018-12-29T20:01:42.863Z,57.60
2018-12-29T20:08:13.491Z,57.50
2018-12-29T20:11:37.901Z,59.73
2018-12-29T20:18:08.499Z,67.92
2018-12-29T20:24:39.821Z,68.75
2018-12-29T20:28:04.655Z,56.77
2018-12-29T20:34:36.096Z,69.40
2018-12-29T20:41:07.353Z,64.53
2018-12-29T20:44:32.423Z,64.63
2018-12-29T20:51:03.729Z,62.43
2018-12-29T20:54:27.871Z,64.70
2018-12-29T21:00:58.880Z,52.33
2018-12-29T21:07:29.720Z,56.42
2018-12-29T21:10:53.937Z,56.28
2018-12-29T21:17:24.595Z,65.35
2018-12-29T21:19:54.875Z,63.00
2018-12-29T21:26:25.915Z,64.07
2018-12-29T21:32:56.910Z,70.03
2018-12-29T21:39:27.521Z,60.58
2018-12-29T21:45:58.401Z,67.30
2018-12-29T21:49:22.457Z,69.87
2018-12-29T21:55:53.452Z,69.45
2018-12-29T21:59:17.442Z,63.02
2018-12-29T22:05:48.010Z,63.85
2018-12-29T22:12:18.466Z,70.65
2018-12-29T22:18:51.586Z,56.83
2018-12-29T22:25:22.819Z,62.53
2018-12-29T22:31:53.284Z,64.97
2018-12-29T22:38:23.884Z,62.50
2018-12-29T22:41:48.354Z,60.45
2018-12-29T22:48:28.050Z,57.62
2018-12-29T22:54:58.460Z,58.33
2018-12-29T22:58:22.683Z,58.15
2018-12-29T23:04:53.299Z,62.58
2018-12-29T23:11:24.404Z,62.83
2018-12-29T23:14:48.666Z,63.35
2018-12-29T23:21:19.655Z,60.80
2018-12-29T23:27:50.742Z,68.12
2018-12-29T23:31:15.088Z,69.17
2018-12-29T23:37:45.925Z,65.47
2018-12-29T23:41:10.223Z,68.00
2018-12-29T23:47:42.744Z,67.27
2018-12-29T23:51:07.340Z,68.33
2018-12-29T23:57:38.199Z,71.62
